createdAt,value
2019-04-27T00:00:00.769Z,19.23
2019-04-27T00:03:07.802Z,15.97
2019-04-27T00:06:13.435Z,22.50
2019-04-27T00:09:22.946Z,27.30
2019-04-27T00:12:26.544Z,19.27
2019-04-27T00:15:47.257Z,15.20
2019-04-27T00:18:56.347Z,13.87
2019-04-27T00:22:03.743Z,12.97
2019-04-27T00:25:06.053Z,12.10
2019-04-27T00:28:08.008Z,13.40
2019-04-27T00:31:10.024Z,11.10
2019-04-27T00:34:13.358Z,9.37
2019-04-27T00:37:26.374Z,10.87
2019-04-27T00:40:33.525Z,8.93
2019-04-27T00:43:35.812Z,9.23
2019-04-27T00:46:37.854Z,7.57
2019-04-27T00:49:39.808Z,8.47
2019-04-27T00:52:42.954Z,13.80
2019-04-27T00:55:49.668Z,9.10
2019-04-27T00:58:53.644Z,11.03
2019-04-27T01:02:13.915Z,8.07
2019-04-27T01:05:17.626Z,8.37
2019-04-27T01:08:19.639Z,8.47
2019-04-27T01:11:22.671Z,11.83
2019-04-27T01:14:25.322Z,10.37
2019-04-27T01:17:28.813Z,9.13
2019-04-27T01:20:30.727Z,10.03
2019-04-27T01:23:32.660Z,13.33
2019-04-27T01:26:49.951Z,7.60
2019-04-27T01:29:53.905Z,8.10
2019-04-27T01:32:55.860Z,9.73
2019-04-27T01:35:58.899Z,7.93
2019-04-27T01:39:00.935Z,7.07
2019-04-27T01:42:03.270Z,7.77
2019-04-27T01:45:08.526Z,12.37
2019-04-27T01:48:22.450Z,9.03
2019-04-27T01:51:14.346Z,8.77
2019-04-27T01:54:19.378Z,7.93
2019-04-27T01:57:21.743Z,6.53
2019-04-27T02:00:29.517Z,6.67
2019-04-27T02:03:49.916Z,8.40
2019-04-27T02:06:54.771Z,9.17
2019-04-27T02:09:56.702Z,7.40
2019-04-27T02:12:58.775Z,7.60
2019-04-27T02:16:00.774Z,9.90
2019-04-27T02:19:02.593Z,9.47
2019-04-27T02:22:04.612Z,9.83
2019-04-27T02:25:06.719Z,7.70
2019-04-27T02:28:16.479Z,13.53
2019-04-27T02:31:40.336Z,8.87
2019-04-27T02:34:53.015Z,8.27
2019-04-27T02:37:54.953Z,7.93
2019-04-27T02:41:00.549Z,8.03
2019-04-27T02:44:11.371Z,7.70
2019-04-27T02:47:13.383Z,7.00
2019-04-27T02:50:15.333Z,8.40
2019-04-27T02:53:19.699Z,6.80
2019-04-27T02:56:21.509Z,9.43
2019-04-27T02:59:23.460Z,10.90
2019-04-27T03:02:29.719Z,8.47
2019-04-27T03:05:31.015Z,8.57
2019-04-27T03:08:32.961Z,8.53
2019-04-27T03:11:36.310Z,7.50
2019-04-27T03:14:50.563Z,6.80
2019-04-27T03:17:54.461Z,9.47
2019-04-27T03:21:00.401Z,9.43
2019-04-27T03:24:02.327Z,9.93
2019-04-27T03:27:06.058Z,11.00
2019-04-27T03:30:12.224Z,12.70
2019-04-27T03:33:14.657Z,12.23
2019-04-27T03:36:16.567Z,12.87
2019-04-27T03:39:20.002Z,15.27
2019-04-27T03:42:22.524Z,12.33
2019-04-27T03:45:24.495Z,12.23
2019-04-27T03:48:26.467Z,12.20
2019-04-27T03:51:36.329Z,14.33
2019-04-27T03:54:40.322Z,13.37
2019-04-27T03:57:44.080Z,11.70
2019-04-27T04:00:45.984Z,14.53
2019-04-27T04:03:50.049Z,13.40
2019-04-27T04:06:51.856Z,12.90
2019-04-27T04:09:53.786Z,12.07
2019-04-27T04:13:01.650Z,10.30
2019-04-27T04:16:10.796Z,11.47
2019-04-27T04:19:13.431Z,11.97
2019-04-27T04:22:15.376Z,12.33
2019-04-27T04:25:17.287Z,11.83
2019-04-27T04:28:20.098Z,11.20
2019-04-27T04:31:23.744Z,12.23
2019-04-27T04:34:25.706Z,11.23
2019-04-27T04:37:29.581Z,11.97
2019-04-27T04:40:33.788Z,10.90
2019-04-27T04:43:54.017Z,11.47
2019-04-27T04:47:00.115Z,13.80
2019-04-27T04:50:11.373Z,15.03
2019-04-27T04:53:06.388Z,18.67
2019-04-27T04:56:09.020Z,14.10
2019-04-27T04:59:12.191Z,14.10
2019-04-27T05:02:14.206Z,14.20
2019-04-27T05:05:16.167Z,14.60
2019-04-27T05:08:19.060Z,17.63
2019-04-27T05:11:21.102Z,13.87
2019-04-27T05:14:22.993Z,13.90
2019-04-27T05:17:26.230Z,16.33
2019-04-27T05:20:48.563Z,13.23
2019-04-27T05:23:50.701Z,14.60
2019-04-27T05:26:52.608Z,14.90
2019-04-27T05:29:54.591Z,11.47
2019-04-27T05:32:56.494Z,11.80
2019-04-27T05:35:59.093Z,11.77
2019-04-27T05:39:01.532Z,12.37
2019-04-27T05:42:06.101Z,15.17
2019-04-27T05:45:15.321Z,12.10
2019-04-27T05:48:27.441Z,12.87
2019-04-27T05:51:22.460Z,13.20
2019-04-27T05:54:24.360Z,13.20
2019-04-27T05:57:26.485Z,12.33
2019-04-27T06:00:29.287Z,11.33
2019-04-27T06:03:31.582Z,13.73
2019-04-27T06:06:33.571Z,11.30
2019-04-27T06:09:35.507Z,14.27
2019-04-27T06:12:37.417Z,10.70
2019-04-27T06:15:39.345Z,9.60
2019-04-27T06:18:41.302Z,12.33
2019-04-27T06:21:43.258Z,13.03
2019-04-27T06:24:46.141Z,11.57
2019-04-27T06:27:49.535Z,15.33
2019-04-27T06:30:51.980Z,11.53
2019-04-27T06:33:53.910Z,11.23
2019-04-27T06:36:55.950Z,10.50
2019-04-27T06:39:59.685Z,13.23
2019-04-27T06:43:01.933Z,11.30
2019-04-27T06:46:03.902Z,12.10
2019-04-27T06:49:05.938Z,14.90
2019-04-27T06:52:08.645Z,12.23
2019-04-27T06:55:10.742Z,12.47
2019-04-27T06:58:12.756Z,9.97
2019-04-27T07:01:14.682Z,10.70
2019-04-27T07:04:16.591Z,11.20
2019-04-27T07:07:19.635Z,10.90
2019-04-27T07:10:21.521Z,11.37
2019-04-27T07:13:23.424Z,10.87
2019-04-27T07:16:25.325Z,9.67
2019-04-27T07:19:28.948Z,9.77
2019-04-27T07:22:30.904Z,11.50
2019-04-27T07:25:32.859Z,10.77
2019-04-27T07:28:35.341Z,11.93
2019-04-27T07:31:40.039Z,10.40
2019-04-27T07:34:41.976Z,11.43
2019-04-27T07:37:44.000Z,12.93
2019-04-27T07:40:45.898Z,13.70
2019-04-27T07:43:50.381Z,11.43
2019-04-27T07:47:03.296Z,10.13
2019-04-27T07:50:05.477Z,14.50
2019-04-27T07:53:08.609Z,13.27
2019-04-27T07:56:10.996Z,12.93
2019-04-27T07:59:12.939Z,13.73
2019-04-27T08:02:14.923Z,11.80
2019-04-27T08:05:16.809Z,13.03
2019-04-27T08:08:19.054Z,11.00
2019-04-27T08:11:21.343Z,11.57
2019-04-27T08:14:23.285Z,11.10
2019-04-27T08:17:25.159Z,11.97
2019-04-27T08:20:29.261Z,9.13
2019-04-27T08:23:31.025Z,12.77
2019-04-27T08:26:37.327Z,9.23
2019-04-27T08:29:41.152Z,9.47
2019-04-27T08:32:49.715Z,9.07
2019-04-27T08:35:51.972Z,7.73
2019-04-27T08:38:53.947Z,7.07
2019-04-27T08:41:55.935Z,6.50
2019-04-27T08:44:59.392Z,7.07
2019-04-27T08:48:01.676Z,7.30
2019-04-27T08:51:03.619Z,6.83
2019-04-27T08:54:06.083Z,5.97
2019-04-27T08:57:09.766Z,7.20
2019-04-27T09:00:12.173Z,7.27
2019-04-27T09:03:14.149Z,6.90
2019-04-27T09:06:16.111Z,6.10
2019-04-27T09:09:29.530Z,7.00
2019-04-27T09:12:51.838Z,6.50
2019-04-27T09:16:00.110Z,8.27
2019-04-27T09:19:16.077Z,8.23
2019-04-27T09:22:19.295Z,7.30
2019-04-27T09:25:21.876Z,7.80
2019-04-27T09:28:23.840Z,7.77
2019-04-27T09:31:25.836Z,8.27
2019-04-27T09:34:27.883Z,9.23
2019-04-27T09:37:29.833Z,8.97
2019-04-27T09:40:32.539Z,12.57
2019-04-27T09:43:34.497Z,10.03
2019-04-27T09:46:36.471Z,10.17
2019-04-27T09:49:38.651Z,11.17
2019-04-27T09:52:40.836Z,11.67
2019-04-27T09:55:44.131Z,12.00
2019-04-27T09:58:47.087Z,11.70
2019-04-27T10:01:49.256Z,12.17
2019-04-27T10:04:51.573Z,13.40
2019-04-27T10:07:53.600Z,12.87
2019-04-27T10:10:56.660Z,13.60
2019-04-27T10:13:59.120Z,16.27
2019-04-27T10:17:01.076Z,15.67
2019-04-27T10:20:05.970Z,15.17
2019-04-27T10:23:08.162Z,15.77
2019-04-27T10:26:10.116Z,17.30
2019-04-27T10:29:12.062Z,17.10
2019-04-27T10:32:13.992Z,14.83
2019-04-27T10:35:16.135Z,14.93
2019-04-27T10:38:18.313Z,15.97
2019-04-27T10:41:20.413Z,14.97
2019-04-27T10:44:22.388Z,17.03
2019-04-27T10:47:25.975Z,15.20
2019-04-27T10:50:28.346Z,16.07
2019-04-27T10:53:30.284Z,16.70
2019-04-27T10:56:32.487Z,15.03
2019-04-27T10:59:36.023Z,16.07
2019-04-27T11:02:38.250Z,15.70
2019-04-27T11:05:51.677Z,16.10
2019-04-27T11:08:53.662Z,17.10
2019-04-27T11:11:56.598Z,16.93
2019-04-27T11:14:59.328Z,17.83
2019-04-27T11:18:01.238Z,17.37
2019-04-27T11:21:03.174Z,17.77
2019-04-27T11:24:05.116Z,20.13
2019-04-27T11:27:07.069Z,18.23
2019-04-27T11:30:10.535Z,19.70
2019-04-27T11:33:12.510Z,19.13
2019-04-27T11:36:25.647Z,21.00
2019-04-27T11:39:27.749Z,21.53
2019-04-27T11:42:29.821Z,19.33
2019-04-27T11:45:31.761Z,19.07
2019-04-27T11:48:33.833Z,19.63
2019-04-27T11:51:36.605Z,19.73
2019-04-27T11:54:38.881Z,20.23
2019-04-27T11:57:41.035Z,20.20
2019-04-27T12:00:43.061Z,20.80
2019-04-27T12:03:45.066Z,18.10
2019-04-27T12:06:46.949Z,17.83
2019-04-27T12:09:48.887Z,17.60
2019-04-27T12:12:50.984Z,18.00
2019-04-27T12:15:52.965Z,18.10
2019-04-27T12:18:56.373Z,17.17
2019-04-27T12:21:58.781Z,16.07
2019-04-27T12:25:00.712Z,15.80
2019-04-27T12:28:10.193Z,17.43
2019-04-27T12:31:14.005Z,16.30
2019-04-27T12:34:16.351Z,16.20
2019-04-27T12:37:19.997Z,15.10
2019-04-27T12:40:21.913Z,14.53
2019-04-27T12:43:24.034Z,16.00
2019-04-27T12:46:25.967Z,14.40
2019-04-27T12:49:27.955Z,13.17
2019-04-27T12:52:29.874Z,13.63
2019-04-27T12:55:40.348Z,13.77
2019-04-27T12:58:50.251Z,14.07
2019-04-27T13:01:52.196Z,12.97
2019-04-27T13:04:54.133Z,13.63
2019-04-27T13:07:56.115Z,13.80
2019-04-27T13:10:58.108Z,13.67
2019-04-27T13:14:01.469Z,11.83
2019-04-27T13:17:03.442Z,13.37
2019-04-27T13:20:06.462Z,12.17
2019-04-27T13:23:08.415Z,12.47
2019-04-27T13:26:10.341Z,12.20
2019-04-27T13:29:12.255Z,17.77
2019-04-27T13:32:16.047Z,11.63
2019-04-27T13:35:18.108Z,12.17
2019-04-27T13:38:21.256Z,12.67
2019-04-27T13:41:30.406Z,11.30
2019-04-27T13:44:27.148Z,10.60
2019-04-27T13:47:30.987Z,11.87
2019-04-27T13:50:37.768Z,9.73
2019-04-27T13:53:41.459Z,10.70
2019-04-27T13:56:43.371Z,11.73
2019-04-27T13:59:45.513Z,10.07
2019-04-27T14:02:47.436Z,10.60
2019-04-27T14:05:49.534Z,10.47
2019-04-27T14:08:51.524Z,11.73
2019-04-27T14:11:55.302Z,10.93
2019-04-27T14:14:58.979Z,10.53
2019-04-27T14:18:01.600Z,9.43
2019-04-27T14:21:04.721Z,9.93
2019-04-27T14:24:06.737Z,9.00
2019-04-27T14:27:09.274Z,9.43
2019-04-27T14:30:13.506Z,10.93
2019-04-27T14:33:16.263Z,9.57
2019-04-27T14:36:18.352Z,9.93
2019-04-27T14:39:20.534Z,10.67
2019-04-27T14:42:22.739Z,9.43
2019-04-27T14:45:24.815Z,11.37
2019-04-27T14:48:29.473Z,10.27
2019-04-27T14:51:31.848Z,10.23
2019-04-27T14:54:46.039Z,8.63
2019-04-27T14:57:39.440Z,8.67
2019-04-27T15:00:41.856Z,7.77
2019-04-27T15:03:43.786Z,7.93
2019-04-27T15:06:46.743Z,6.33
2019-04-27T15:09:49.723Z,7.17
2019-04-27T15:12:55.363Z,6.03
2019-04-27T15:15:56.673Z,7.27
2019-04-27T15:19:02.425Z,7.63
2019-04-27T15:22:06.164Z,6.93
2019-04-27T15:25:13.013Z,9.10
2019-04-27T15:28:16.776Z,8.20
2019-04-27T15:31:29.683Z,6.97
2019-04-27T15:34:35.590Z,6.97
2019-04-27T15:37:41.863Z,7.90
2019-04-27T15:40:54.317Z,7.67
2019-04-27T15:43:52.159Z,7.13
2019-04-27T15:46:54.151Z,8.90
2019-04-27T15:49:56.083Z,8.47
2019-04-27T15:52:58.077Z,8.37
2019-04-27T15:56:01.597Z,7.60
2019-04-27T15:59:04.033Z,9.70
2019-04-27T16:02:11.762Z,8.33
2019-04-27T16:05:10.371Z,7.97
2019-04-27T16:08:15.261Z,7.40
2019-04-27T16:11:19.566Z,8.23
2019-04-27T16:14:20.542Z,8.87
2019-04-27T16:17:23.537Z,8.50
2019-04-27T16:20:30.218Z,7.47
2019-04-27T16:23:33.646Z,7.97
2019-04-27T16:26:33.947Z,9.83
2019-04-27T16:29:36.776Z,11.97
2019-04-27T16:32:40.382Z,15.10
2019-04-27T16:35:44.341Z,14.20
2019-04-27T16:38:50.675Z,13.33
2019-04-27T16:41:52.612Z,15.17
2019-04-27T16:44:54.493Z,10.43
2019-04-27T16:47:57.556Z,10.37
2019-04-27T16:51:01.597Z,9.80
2019-04-27T16:54:03.620Z,11.57
2019-04-27T16:57:07.919Z,12.53
2019-04-27T17:00:14.428Z,9.47
2019-04-27T17:03:18.081Z,12.00
2019-04-27T17:06:21.601Z,11.33
2019-04-27T17:09:23.811Z,10.63
2019-04-27T17:12:29.918Z,12.53
2019-04-27T17:15:53.645Z,14.37
2019-04-27T17:18:57.813Z,13.77
2019-04-27T17:21:59.012Z,13.43
2019-04-27T17:25:00.924Z,14.53
2019-04-27T17:28:07.511Z,15.67
2019-04-27T17:31:12.874Z,14.93
2019-04-27T17:34:13.737Z,15.50
2019-04-27T17:37:15.605Z,18.70
2019-04-27T17:40:17.527Z,25.00
2019-04-27T17:43:19.435Z,31.33
2019-04-27T17:46:22.033Z,28.83
2019-04-27T17:49:24.623Z,32.17
2019-04-27T17:52:27.125Z,46.07
2019-04-27T17:55:29.112Z,36.50
2019-04-27T17:58:31.042Z,38.07
2019-04-27T18:01:32.976Z,47.07
2019-04-27T18:04:37.736Z,44.60
2019-04-27T18:07:40.396Z,19.77
2019-04-27T18:10:43.348Z,22.83
2019-04-27T18:13:45.297Z,19.00
2019-04-27T18:16:48.223Z,26.10
2019-04-27T18:19:52.427Z,22.00
2019-04-27T18:23:02.898Z,40.17
2019-04-27T18:26:07.171Z,47.17
2019-04-27T18:29:09.324Z,45.30
2019-04-27T18:32:11.397Z,36.50
2019-04-27T18:35:14.859Z,32.50
2019-04-27T18:38:17.738Z,34.90
2019-04-27T18:41:22.618Z,27.70
2019-04-27T18:44:30.512Z,22.97
2019-04-27T18:47:31.245Z,22.10
2019-04-27T18:50:38.439Z,25.87
2019-04-27T18:53:40.513Z,25.77
2019-04-27T18:56:42.548Z,34.67
2019-04-27T18:59:44.604Z,27.77
2019-04-27T19:02:48.257Z,30.93
2019-04-27T19:05:50.500Z,33.23
2019-04-27T19:08:54.733Z,52.77
2019-04-27T19:11:56.868Z,34.27
2019-04-27T19:15:03.007Z,38.83
2019-04-27T19:18:06.225Z,38.23
2019-04-27T19:21:11.267Z,43.17
2019-04-27T19:24:14.316Z,43.63
2019-04-27T19:27:21.199Z,47.20
2019-04-27T19:30:28.039Z,42.17
2019-04-27T19:33:30.872Z,39.53
2019-04-27T19:36:35.388Z,40.20
2019-04-27T19:39:40.917Z,38.17
2019-04-27T19:42:43.342Z,42.43
2019-04-27T19:45:48.229Z,44.73
2019-04-27T19:48:51.621Z,51.33
2019-04-27T19:51:54.831Z,57.07
2019-04-27T19:55:00.539Z,54.37
2019-04-27T19:58:02.469Z,53.33
2019-04-27T20:01:11.895Z,52.23
2019-04-27T20:04:18.520Z,54.00
2019-04-27T20:07:20.545Z,47.53
2019-04-27T20:10:22.542Z,49.77
2019-04-27T20:13:27.517Z,48.33
2019-04-27T20:16:29.527Z,56.13
2019-04-27T20:19:35.184Z,56.33
2019-04-27T20:22:37.202Z,50.07
2019-04-27T20:25:39.192Z,51.50
2019-04-27T20:28:41.504Z,51.77
2019-04-27T20:31:43.898Z,49.40
2019-04-27T20:34:46.234Z,48.20
2019-04-27T20:37:48.168Z,47.40
2019-04-27T20:40:51.073Z,49.03
2019-04-27T20:43:54.265Z,50.23
2019-04-27T20:46:56.514Z,56.93
2019-04-27T20:49:58.439Z,50.33
2019-04-27T20:53:02.267Z,45.90
2019-04-27T20:56:04.722Z,52.83
2019-04-27T20:59:06.658Z,48.43
2019-04-27T21:02:27.364Z,44.10
2019-04-27T21:05:31.173Z,45.87
2019-04-27T21:08:35.262Z,45.87
2019-04-27T21:11:46.670Z,44.40
2019-04-27T21:14:49.777Z,45.83
2019-04-27T21:17:51.723Z,46.20
2019-04-27T21:20:53.816Z,43.13
2019-04-27T21:23:56.877Z,45.67
2019-04-27T21:26:59.597Z,44.67
2019-04-27T21:30:02.762Z,42.23
2019-04-27T21:33:05.344Z,42.13
2019-04-27T21:36:07.227Z,42.90
2019-04-27T21:39:09.126Z,40.00
2019-04-27T21:42:12.541Z,45.60
2019-04-27T21:45:17.291Z,44.70
2019-04-27T21:48:21.063Z,42.93
2019-04-27T21:51:23.016Z,46.10
2019-04-27T21:54:26.956Z,38.60
2019-04-27T21:57:28.814Z,41.23
2019-04-27T22:00:42.489Z,45.13
2019-04-27T22:03:46.056Z,41.27
2019-04-27T22:06:47.954Z,43.00
2019-04-27T22:09:51.680Z,38.90
2019-04-27T22:12:53.749Z,45.07
2019-04-27T22:15:55.694Z,44.57
2019-04-27T22:18:57.631Z,47.70
2019-04-27T22:22:01.431Z,45.67
2019-04-27T22:25:06.816Z,46.67
2019-04-27T22:28:08.729Z,47.63
2019-04-27T22:31:12.355Z,48.63
2019-04-27T22:34:14.564Z,47.63
2019-04-27T22:37:17.510Z,41.23
2019-04-27T22:40:38.353Z,42.30
2019-04-27T22:43:44.557Z,61.97
2019-04-27T22:46:48.314Z,43.17
2019-04-27T22:49:50.262Z,48.93
2019-04-27T22:52:52.247Z,43.93
2019-04-27T22:56:13.507Z,40.80
2019-04-27T22:59:32.879Z,46.43
2019-04-27T23:02:36.686Z,41.43
2019-04-27T23:05:38.696Z,40.47
2019-04-27T23:08:41.509Z,42.30
2019-04-27T23:11:44.040Z,36.60
2019-04-27T23:14:46.042Z,40.77
2019-04-27T23:17:51.760Z,39.40
2019-04-27T23:20:54.137Z,38.87
2019-04-27T23:23:56.056Z,36.37
2019-04-27T23:26:58.099Z,40.63
2019-04-27T23:30:01.433Z,40.63
2019-04-27T23:33:03.763Z,40.23
2019-04-27T23:36:05.702Z,41.50
2019-04-27T23:39:07.615Z,44.30
2019-04-27T23:42:11.524Z,48.30
2019-04-27T23:45:13.614Z,41.50
2019-04-27T23:48:15.559Z,40.57
2019-04-27T23:51:22.297Z,42.30
2019-04-27T23:54:24.188Z,37.97
2019-04-27T23:57:26.219Z,44.60
